Weather observations for the past three days for
Bastrop, Morehouse Memorial Airport
Metric (Imperial)
Date Time (cdt) Wind (kph) Vis. (km) Weather Sky Cond. Temperature (ºC) Relative Humidity Wind Chill (°C) Heat Index (°C) Pressure Precipitation (cm)
Air Dwpt 6 hour altimeter (cm) sea level (mb) 1 hr 3 hr 6 hr
Max. Min.
02 11:50 N 6 0.00 Fair CLR 20.6 3.4 32% 76.58 0.0
02 11:30 NW 9 0.00 Fair CLR 20.2 4.4 36% 76.56 0.0
02 11:10 N 9 0.00 Fair CLR 19.9 4.7 37% 76.56 0.0
02 10:50 NW 6 0.00 Fair CLR 19.4 5.2 39% 76.56 0.0
02 10:30 Calm 0.00 Fair CLR 19 6.4 44% 76.56 0.0
02 10:10 Calm 0.00 Fair CLR 18 6.9 48% 76.56 0.0
02 09:50 Calm 0.00 Fair CLR 17.1 6.4 50% 76.56 0.0 0.03
02 09:30 Calm 0.00 Fair CLR 16.9 7 52% 76.56 0.0
02 09:10 N 6 0.00 Fair CLR 16 7.8 58% 76.53 0.0
02 08:50 Calm 0.00 Fair CLR 15 7.9 63% 76.5 0.0 0.03
02 08:30 Calm 0.00 Fair CLR 14.2 8.1 67% 76.5 0.0
02 08:10 Calm 0.00 Fair CLR 13.5 8.3 71% 76.48 0.0
02 07:50 Calm 0.00 Fair CLR 12.2 8.2 77% 76.45 0.0
02 07:30 N 6 0.00 Fair CLR 12.3 8 75% 76.45 0.0
02 07:10 Calm 0.00 Fair CLR 11.5 8.3 81% 76.4 0.0
02 06:50 Calm 0.00 Fair CLR 11 8.3 12.6 11 84% 76.38 0.0
02 06:30 Calm 0.00 Fair CLR 11 8.5 85% 76.35 0.0
02 06:10 Calm 0.00 NULL NULL 11.1 8.6 85% 76.35 0.0
02 05:50 Calm 0.00 NULL NULL 11.2 8.7 85% 76.33 0.0
02 05:30 Calm 0.00 Fair CLR 11.4 9 85% 76.3 0.0
02 05:10 Calm 0.00 NULL NULL 11.5 9.3 86% 76.28 0.0
02 04:50 Calm 0.00 NULL NULL 11.6 9.5 87% 76.28 0.0
02 04:30 Calm 0.00 NULL NULL 11.7 9.6 87% 76.28 0.0
02 04:10 Calm 0.00 NULL NULL 11.8 9.8 88% 76.28 0.0
02 03:50 Calm 0.00 NULL NULL 12 10 88% 76.25 0.0
02 03:30 Calm 0.00 NULL NULL 12.1 10.1 88% 76.23 0.0
02 03:10 Calm 0.00 NULL NULL 12.2 10.1 87% 76.23 0.0
02 02:50 Calm 0.00 NULL NULL 12.2 10.7 91% 76.23 0.0
02 02:30 Calm 0.00 NULL NULL 12.1 11.1 94% 76.23 0.0
02 02:10 Calm 0.00 NULL NULL 12.1 11.5 96% 76.25 0.0
02 01:50 Calm 0.00 NULL NULL 12 11.3 96% 76.28 0.0
02 01:30 Calm 0.00 NULL NULL 12 11.1 94% 76.28 0.0
02 01:10 Calm 0.00 NULL NULL 12.5 11.6 94% 76.28 0.0
02 00:50 Calm 0.00 Overcast OVC100 12.6 11.3 13.5 12.5 92% 76.3 0.0
02 00:30 Calm 0.00 Overcast OVC100 12.5 11.5 94% 76.3 0.0
02 00:10 Calm 0.00 Overcast OVC090 13 11.1 88% 76.33 0.0
01 23:50 Calm 0.00 Overcast OVC090 13.1 11.4 90% 76.28 0.0
01 23:30 Calm 0.00 Overcast OVC100 13.2 11.3 88% 76.28 0.0
01 23:10 Calm 0.00 Overcast OVC110 13 12.2 95% 76.28 0.0
01 22:50 Calm 0.00 NULL NULL 13.2 12.5 96% 76.33 0.0
01 22:30 Calm 0.00 NULL NULL 13.5 12.2 92% 76.3 0.0
01 22:10 Calm 0.00 NULL NULL 13.1 12.2 94% 76.28 0.0
01 21:50 Calm 0.00 Overcast OVC100 13.1 12.3 95% 76.28 0.0
01 21:30 Calm 0.00 NULL NULL 12.8 12.2 96% 76.2 0.0
01 21:10 Calm 0.00 NULL NULL 12.9 12 94% 76.17 0.0
01 20:50 Calm 0.00 Mostly Cloudy BKN100 BKN120 13.1 11.9 93% 76.17 0.0
01 20:30 Calm 0.00 Overcast OVC100 13 12 94% 76.15 0.0
01 20:10 Calm 0.00 NULL NULL 12.9 12 94% 76.17 0.0
01 19:50 Calm 0.00 NULL NULL 13.2 12.3 94% 76.25 0.0
01 19:30 Calm 0.00 Overcast OVC090 13.3 12.2 93% 76.2 0.0
01 19:10 Calm 0.00 Overcast OVC090 13.4 12.2 93% 76.2 0.0
01 18:50 Calm 0.00 Overcast OVC090 13.3 11.8 14.5 13.3 91% 76.2 0.0 0.03
01 18:30 Calm 0.00 Overcast OVC090 13.7 12 90% 76.17 0.0
01 18:10 Calm 0.00 Overcast OVC100 14 11.7 86% 76.17 0.0
01 17:50 Calm 0.00 Overcast OVC100 14.5 10.3 76% 76.15 0.0
01 17:30 Calm 0.00 Overcast OVC100 14 10.5 80% 76.1 0.0
01 17:10 Calm 0.00 Overcast OVC100 14.2 10.2 77% 76.07 0.0
01 16:50 NE 6 0.00 Overcast OVC090 14.2 10.2 77% 76.02 0.0
01 16:30 NE 7 0.00 Mostly Cloudy BKN090 14.2 9.9 76% 76.02 0.0
01 16:10 NE 9 0.00 Mostly Cloudy BKN090 14.2 10 76% 76 0.0
01 15:50 E 9 0.00 Overcast OVC090 14.1 10.5 79% 76.02 0.0 0.03 0.03
01 15:30 NE 6 0.00 Overcast OVC090 14.2 11.3 83% 76.1 0.0
01 15:10 E 7 0.00 NULL NULL 14.1 12 87% 76.15 0.0
01 14:50 Calm 0.00 Overcast OVC095 14 12.2 89% 76.15 0.0
01 14:30 NE 7 0.00 Overcast OVC095 13.7 12.4 92% 76.17 0.0
01 14:10 Calm 0.00 NULL NULL 13.7 12.5 93% 76.2 0.0
01 13:50 Calm 0.00 NULL NULL 13.8 12.8 94% 76.25 0.0
01 13:30 NE 6 0.00 NULL NULL 13.7 12.7 94% 76.25 0.0
01 13:10 Calm 0.00 NULL NULL 13.7 12.9 95% 76.28 0.0
01 12:50 NE 6 0.00 NULL NULL 13.3 12.4 13.6 12.3 94% 76.3 0.0 0.03
01 12:30 Calm 0.00 Overcast BKN008 BKN015 OVC032 13.4 12.5 94% 76.33 0.0
01 12:10 Calm 0.00 Overcast BKN008 BKN027 OVC080 13.5 12.4 93% 76.35 0.0
01 11:50 Calm 0.00 NULL NULL 13.6 12.3 92% 76.4 0.0
01 11:30 Calm 0.00 Overcast BKN009 BKN055 OVC090 13.5 12.1 91% 76.35 0.0
01 11:10 Calm 0.00 NULL NULL 13.6 12 90% 76.33 0.0
01 10:50 Calm 0.00 NULL NULL 13.5 11.9 90% 76.3 0.0
01 10:30 Calm 0.00 NULL NULL 13.5 12.1 91% 76.28 0.0
01 10:10 Calm 0.00 NULL NULL 13.3 12.1 93% 76.28 0.0
01 09:50 Calm 0.00 NULL NULL 13.1 12 93% 76.28 0.0 0.03 0.03
01 09:30 Calm 0.00 NULL NULL 13 11.8 93% 76.33 0.0
01 09:10 Calm 0.00 Overcast OVC080 13 11.7 92% 76.3 0.0
01 08:50 Calm 0.00 Overcast OVC080 12.8 11.6 92% 76.33 0.0
01 08:30 Calm 0.00 NULL NULL 12.7 11.7 94% 76.3 0.0
01 08:10 Calm 0.00 NULL NULL 12.6 11.7 94% 76.28 0.0
01 07:50 Calm 0.00 Overcast OVC075 12.5 11.5 94% 76.28 0.0
01 07:30 Calm 0.00 NULL NULL 12.4 11.3 93% 76.23 0.0
01 07:10 Calm 0.00 NULL NULL 12.5 11.3 92% 76.2 0.0
01 06:50 Calm 0.00 Overcast OVC065 12.3 10.9 14.1 12.3 91% 76.2 0.0 0.03
01 06:30 Calm 0.00 NULL NULL 12.5 10.9 90% 76.17 0.0
01 06:10 Calm 0.00 Overcast OVC044 12.8 10.7 87% 76.15 0.0
01 05:50 Calm 0.00 Overcast OVC042 13.3 10.5 83% 76.12 0.0
01 05:30 Calm 0.00 Overcast OVC042 13.5 10.2 81% 76.12 0.0
01 05:10 NE 6 0.00 Overcast OVC042 13.5 10.1 80% 76.1 0.0
01 04:50 NE 6 0.00 Overcast OVC042 13.5 10.1 80% 76.12 0.0 0.03
01 04:30 Calm 0.00 Overcast OVC042 13.5 10.3 81% 76.12 0.0
01 03:50 N 6 0.00 Overcast OVC040 13.5 10.5 82% 76.12 0.0
01 03:30 N 6 0.00 Overcast OVC040 13.4 10.7 84% 76.1 0.0
01 03:10 Calm 0.00 Overcast OVC040 13.6 10.9 84% 76.12 0.0
01 02:50 N 6 0.00 Overcast OVC040 13.7 11 84% 76.12 0.0
01 02:30 Calm 0.00 Overcast OVC042 13.7 11.2 85% 76.15 0.0
01 02:10 Calm 0.00 Overcast OVC042 13.8 11.4 86% 76.17 0.0
01 01:50 Calm 0.00 Overcast OVC044 14 11.6 86% 76.15 0.0
01 01:30 Calm 0.00 Overcast OVC042 14 11.9 87% 76.12 0.0
01 01:10 Calm 0.00 Overcast OVC042 14 12 88% 76.12 0.0
01 00:50 Calm 0.00 NULL NULL 14.1 12.3 15.2 13.9 89% 76.12 0.0 0.05
01 00:30 Calm 0.00 Overcast OVC048 14.5 12.7 89% 76.15 0.0
01 00:10 Calm 0.00 Overcast OVC048 14.4 12.7 90% 76.2 0.0
30 23:50 Calm 0.00 Overcast OVC048 14.3 12.9 91% 76.17 0.0 0.03
30 23:30 Calm 0.00 Overcast OVC048 14.1 13 93% 76.17 0.0 0.03
30 23:10 Calm 0.00 Overcast OVC048 14 12.7 92% 76.15 0.0 0.03
30 22:50 Calm 0.00 NULL NULL 14.2 12.8 91% 76.15 0.0
30 22:30 Calm 0.00 Overcast OVC043 14.1 12.8 92% 76.2 0.0
30 22:10 Calm 0.00 NULL NULL 14 12.7 92% 76.2 0.0
30 21:50 Calm 0.00 NULL NULL 14.1 12.5 90% 76.15 0.0 0.03
30 21:30 Calm 0.00 Overcast OVC090 14.3 12 86% 76.15 0.0
30 21:10 Calm 0.00 Mostly Cloudy BKN090 BKN120 14.3 12.2 87% 76.07 0.0
30 20:50 Calm 0.00 NULL NULL 14.2 12.5 90% 76.05 0.0
30 20:30 NE 6 0.00 NULL NULL 14.4 12.7 90% 76.02 0.0
30 20:10 Calm 0.00 NULL NULL 14.5 13 91% 76.07 0.0
30 19:50 Calm 0.00 Overcast OVC110 14.5 13 91% 76.05 0.0
30 19:30 Calm 0.00 Overcast OVC090 14.7 13.2 91% 76.07 0.0
30 19:10 Calm 0.00 Overcast OVC090 15.1 13 87% 76.05 0.0
30 18:30 Calm 0.00 NULL NULL 15 13 88% 76.02 0.0
30 18:10 Calm 0.00 NULL NULL 15.2 12.6 85% 76.07 0.0
30 17:50 Calm 0.00 Overcast SCT060 BKN075 OVC085 16.6 11.8 73% 76.07 0.0
30 17:30 Calm 0.00 Overcast OVC060 18 10.8 63% 76.12 0.0
30 17:10 NE 6 0.00 Overcast BKN060 BKN070 OVC085 18.8 11 61% 76.05 0.0
30 16:50 Calm 0.00 Overcast OVC060 19.2 10.7 58% 76.02 0.0 0.03
30 16:30 NE 6 0.00 Overcast OVC060 18.9 10.6 59% 76.02 0.0 0.03
30 16:10 NE 13 0.00 Overcast OVC060 19.1 10.8 59% 76.02 0.0
30 15:50 NE 11 0.00 Overcast OVC060 20 11.4 58% 76.05 0.0 0.03
30 15:30 Calm 0.00 Overcast OVC060 19.6 11.8 61% 76.1 0.0
30 15:10 NE 9 0.00 Overcast OVC060 19.6 11.4 59% 76.12 0.0
30 14:50 NE 11 0.00 Overcast OVC060 19.6 12 62% 76.12 0.0 0.03
30 14:30 NE 13 0.00 Overcast OVC060 20.2 12 59% 76.1 0.0 0.03
30 14:10 NE 13 0.00 Overcast OVC060 19.8 11.7 60% 76.12 0.0
30 13:50 NE 7 0.00 Overcast OVC050 18.8 11.5 63% 76.12 0.0
30 13:30 NE 9 0.00 Overcast OVC050 19 11.4 62% 76.12 0.0
30 13:10 E 11 0.00 Overcast OVC050 19 11.6 62% 76.1 0.0
30 12:50 E 17 G 26 0.00 Overcast OVC050 18.5 11.2 18.5 15.1 63% 76.12 0.0 0.03 0.1
30 12:30 E 11 0.00 Overcast OVC050 18.2 11.7 66% 76.12 0.0 0.03
30 12:10 NE 6 0.00 Overcast OVC050 17.5 11.3 67% 76.15 0.0
30 11:50 NE 11 0.00 Overcast OVC050 16.8 11 69% 76.17 0.0 0.03
30 11:30 NE 9 0.00 Overcast OVC045 16.5 11.5 72% 76.17 0.0 0.03
30 11:10 NE 13 0.00 Overcast OVC045 16.5 11.6 73% 76.2 0.0 0.03
30 10:50 NE 11 G 28 0.00 Overcast OVC045 16 11.3 74% 76.2 0.0
30 10:30 NE 7 0.00 Overcast OVC045 15.8 11.6 76% 76.2 0.0
30 10:10 E 11 0.00 Overcast OVC043 15.7 11.7 77% 76.2 0.0
30 09:50 NE 11 0.00 Overcast OVC043 15.7 11.7 77% 76.2 0.0 0.03 0.05
30 09:30 E 7 0.00 Overcast OVC043 15.7 12.1 79% 76.17 0.0 0.03
30 09:10 NE 11 0.00 Overcast SCT041 OVC049 15.7 12.3 80% 76.15 0.0
30 08:50 NE 7 0.00 NULL NULL 15.5 13.1 86% 76.12 0.0 0.03
30 08:30 NE 15 0.00 Overcast OVC037 15.4 13.4 88% 76.12 0.0 0.03
30 08:10 NE 11 0.00 Overcast OVC037 15.3 13.7 90% 76.12 0.0
30 07:50 NE 7 0.00 Overcast OVC037 15.2 13.8 91% 76.12 0.0
30 07:30 NE 9 0.00 Overcast OVC035 15.5 14.6 94% 76.12 0.0
30 07:10 Calm 0.00 Overcast OVC035 15.5 14.8 96% 76.12 0.0
30 06:50 Calm 0.00 NULL NULL 15.5 14.8 16.6 15.5 96% 76.1 0.0 0.13
30 06:30 NE 6 0.00 Overcast BKN035 BKN060 OVC095 15.5 14.8 96% 76.05 0.0 0.03
30 06:10 NE 6 0.00 NULL NULL 15.5 14.8 96% 76.05 0.0 0.03
30 05:50 Calm 0.00 NULL NULL 15.5 14.9 96% 76.05 0.0
30 05:30 Calm 0.00 NULL NULL 15.5 14.9 96% 76.07 0.0
30 05:10 NE 6 0.00 Overcast BKN028 OVC040 15.6 15 96% 76.05 0.0
30 04:50 NE 11 0.00 NULL NULL 15.6 15 96% 76.05 0.0 0.03
30 04:30 NE 9 0.00 NULL NULL 15.5 15 97% 76.02 0.0 0.03
30 04:10 Calm 0.00 NULL NULL 15.5 15 97% 76.07 0.0
30 03:50 Calm 0.00 Overcast BKN023 BKN042 OVC090 15.5 15 97% 76 0.0 0.03 0.08
30 03:30 N 7 0.00 NULL NULL 15.5 14.8 96% 76.05 0.0 0.03
30 03:10 E 9 0.00 Overcast BKN023 OVC028 15.6 14.8 95% 76.05 0.0
30 02:50 Calm 0.00 Overcast OVC021 15.7 15 96% 76.05 0.0 0.03
30 02:30 NE 7 0.00 Overcast OVC021 15.8 15 95% 76.02 0.0 0.03
30 02:10 NE 7 0.00 NULL NULL 16 15.1 94% 76.02 0.0
30 01:50 Calm 0.00 NULL NULL 16.2 15.4 95% 76.05 0.0 0.03
30 01:30 Calm 0.00 NULL NULL 16.4 15.5 94% 76.07 0.0 0.03
30 01:10 Calm 0.00 Overcast BKN021 BKN033 OVC040 16.5 15.6 94% 76.1 0.0
30 00:50 N 6 0.00 Overcast OVC021 16.7 15.7 19.1 16.7 94% 76.07 0.0 0.03 0.2
30 00:30 N 6 0.00 Overcast OVC021 17 15.9 93% 76.1 0.0
30 00:10 Calm 0.00 Overcast OVC021 17.1 16.1 94% 76.1 0.0
29 23:50 Calm 0.00 Overcast OVC021 17.2 16.2 94% 76.07 0.0 0.03
29 23:30 Calm 0.00 NULL NULL 17.2 16.2 94% 76.12 0.0 0.03
29 23:10 Calm 0.00 NULL NULL 17.2 16.2 94% 76.15 0.0
29 22:50 NW 6 0.00 NULL NULL 17.4 16.2 93% 76.17 0.0 0.03
29 22:30 Calm 0.00 NULL NULL 17.5 16.4 93% 76.1 0.0
29 22:10 Calm 0.00 Overcast OVC008 17.5 16.5 94% 76.07 0.0
29 21:50 Calm 0.00 Overcast OVC008 17.7 16.8 95% 76.05 0.0 0.03 0.13
29 21:30 Calm 0.00 Overcast OVC008 17.7 16.8 95% 76 0.0 0.03
29 21:10 Calm 0.00 NULL NULL 17.6 16.7 95% 75.97 0.0
29 20:50 E 6 0.00 NULL NULL 17.7 16.7 94% 75.92 0.0 0.05
29 20:30 Calm 0.00 NULL NULL 17.8 16.7 93% 75.9 0.0 0.03
29 20:10 E 11 0.00 NULL NULL 18 17 94% 75.87 0.0
29 19:50 N 6 0.00 Overcast BKN009 OVC014 18.5 17.5 94% 75.97 0.0 0.05
29 19:30 Calm 0.00 Overcast BKN011 BKN016 OVC022 18.7 17.7 94% 76 0.0 0.03
29 19:10 Calm 0.00 NULL NULL 19 18 94% 76.02 0.0
29 18:50 Calm 0.00 NULL NULL 19.1 18.5 21.1 18.7 96% 75.97 0.0 0.05 0.66
29 18:30 Calm 0.00 Overcast BKN008 OVC017 19.3 18.6 96% 75.95 0.0 0.03
29 18:10 Calm 0.00 Overcast OVC006 19.3 18.5 95% 75.9 0.0
29 17:50 NW 9 0.00 Overcast OVC006 19.1 18.3 95% 75.9 0.0 0.08
29 17:30 N 6 0.00 Overcast OVC004 19 18.5 97% 75.79 0.0 0.05
29 17:10 N 6 0.00 Mostly Cloudy BKN004 BKN024 BKN070 19 18.5 97% 75.79 0.0 0.03
29 16:50 N 13 0.00 NULL NULL 18.9 18 95% 75.77 0.0 0.05
29 16:30 E 6 0.00 NULL NULL 19 18 94% 75.84 0.0
29 16:10 Calm 0.00 NULL NULL 19.1 18 93% 75.9 0.0 0.05
29 15:50 SE 6 0.00 NULL NULL 19.2 18 93% 75.9 0.0 0.28 0.46
29 15:30 Calm 0.00 NULL NULL 19.1 18 93% 75.95 0.0 0.2
29 15:10 SE 7 0.00 NULL NULL 19 18 94% 75.97 0.0 0.08
29 14:50 E 11 0.00 NULL NULL 18.7 17.6 93% 75.95 0.0 0.13
29 14:30 NW 20 0.00 NULL NULL 0 0 0% 76.2 0.0
29 14:10 N 9 0.00 Overcast OVC020 20.2 17.2 83% 76 0.0
29 13:50 NE 9 0.00 Overcast OVC018 20.6 17.6 83% 76.02 0.0
29 13:30 Calm 0.00 Overcast OVC018 20.8 17.9 84% 76.05 0.0
29 13:10 N 9 0.00 Overcast OVC016 21 18 83% 76.05 0.0
29 12:50 NE 6 0.00 Overcast OVC016 21.2 18 24.4 20.7 82% 76.02 0.0 0.03
29 12:30 NE 9 0.00 Overcast OVC014 21.3 18.6 85% 76.07 0.0
Date Time (cdt) Wind (kph) Vis. (km) Weather Sky Cond. Air Dwpt Max. Min. Relative Humidity Wind Chill (°C) Heat Index (°C) altimeter (cm) sea level (mb) 1 hr 3 hr 6 hr
6 hour
Temperature (ºC) Pressure Precipitation (cm)